createdAt,value
2023-05-08T12:27:19.527Z,101012.80
2023-05-08T12:29:47.823Z,101009.60
2023-05-08T12:32:15.833Z,100998.40
2023-05-08T12:34:43.860Z,101002.60
2023-05-08T12:37:11.677Z,101011.00
2023-05-08T12:39:44.638Z,101007.60
2023-05-08T12:42:12.440Z,101004.40
2023-05-08T12:44:40.320Z,100996.60
2023-05-08T12:47:08.362Z,100988.20
2023-05-08T12:49:37.598Z,100991.20
2023-05-08T12:52:13.229Z,100994.20
2023-05-08T12:54:48.587Z,100992.20
2023-05-08T12:57:19.779Z,100995.60
2023-05-08T12:59:47.555Z,100997.80
2023-05-08T13:02:23.890Z,101000.20
2023-05-08T13:04:56.149Z,100991.80
2023-05-08T13:07:24.240Z,100987.00
2023-05-08T13:10:03.687Z,100991.60
2023-05-08T13:12:32.073Z,101002.00
2023-05-08T13:15:00.445Z,101000.80
2023-05-08T13:17:28.226Z,100995.00
2023-05-08T13:19:56.043Z,100988.20
2023-05-08T13:22:26.676Z,100990.60
2023-05-08T13:24:54.750Z,100976.00
2023-05-08T13:27:23.391Z,100978.80
2023-05-08T13:29:51.276Z,100977.80
2023-05-08T13:32:19.478Z,100962.40
2023-05-08T13:34:50.221Z,100970.40
2023-05-08T13:37:19.902Z,100971.00
2023-05-08T13:39:47.800Z,100971.80
2023-05-08T13:42:15.607Z,100972.20
2023-05-08T13:44:43.759Z,100975.40
2023-05-08T13:47:11.667Z,100968.20
2023-05-08T13:49:39.533Z,100968.80
2023-05-08T13:52:07.416Z,100966.20
2023-05-08T13:54:35.209Z,100961.00
2023-05-08T13:57:03.655Z,100959.00
2023-05-08T13:59:32.570Z,100948.00
2023-05-08T14:02:00.569Z,100952.80
2023-05-08T14:04:28.476Z,100951.20
2023-05-08T14:06:56.540Z,100946.40
2023-05-08T14:09:24.318Z,100932.40
2023-05-08T14:11:52.303Z,100926.20
2023-05-08T14:14:20.068Z,100926.40
2023-05-08T14:16:48.863Z,100919.00
2023-05-08T14:19:18.033Z,100920.80
2023-05-08T14:21:45.782Z,100912.80
2023-05-08T14:24:13.539Z,100918.40
2023-05-08T14:26:42.260Z,100910.00
2023-05-08T14:29:10.072Z,100915.60
2023-05-08T14:31:37.857Z,100919.80
2023-05-08T14:34:05.716Z,100923.60
2023-05-08T14:36:33.615Z,100923.80
2023-05-08T14:39:01.508Z,100912.80
2023-05-08T14:41:30.750Z,100910.00
2023-05-08T14:43:58.904Z,100902.20
2023-05-08T14:46:26.961Z,100899.40
2023-05-08T14:48:56.892Z,100895.60
2023-05-08T14:51:24.823Z,100889.00
2023-05-08T14:53:52.778Z,100885.80
2023-05-08T14:58:52.964Z,100892.00
2023-05-08T15:01:22.394Z,100890.60
2023-05-08T15:03:53.081Z,100882.00
2023-05-08T15:06:23.247Z,100881.00
2023-05-08T15:08:51.919Z,100878.60
2023-05-08T15:11:20.677Z,100880.80
2023-05-08T15:13:48.875Z,100880.80
2023-05-08T15:16:16.730Z,100880.20
2023-05-08T15:18:44.508Z,100883.80
2023-05-08T15:21:12.497Z,100883.20
2023-05-08T15:23:40.321Z,100887.20
2023-05-08T15:26:08.552Z,100882.60
2023-05-08T15:28:36.615Z,100878.60
2023-05-08T15:31:04.975Z,100874.60
2023-05-08T15:33:32.794Z,100878.80
2023-05-08T15:36:00.576Z,100876.00
2023-05-08T15:38:28.872Z,100876.60
2023-05-08T15:40:56.709Z,100877.20
2023-05-08T15:43:24.514Z,100878.80
2023-05-08T15:45:52.412Z,100885.00
2023-05-08T15:48:20.468Z,100883.40
2023-05-08T15:50:48.557Z,100884.40
2023-05-08T15:53:16.412Z,100889.80
2023-05-08T15:55:44.221Z,100884.20
2023-05-08T15:58:12.144Z,100886.40
2023-05-08T16:00:44.544Z,100884.00
2023-05-08T16:03:13.723Z,100882.80
2023-05-08T16:05:41.723Z,100882.60
2023-05-08T16:08:12.438Z,100881.60
2023-05-08T16:10:42.145Z,100886.00
2023-05-08T16:13:10.198Z,100885.80
2023-05-08T16:15:38.618Z,100881.80
2023-05-08T16:18:07.597Z,100880.80
2023-05-08T16:20:36.431Z,100883.40
2023-05-08T16:23:05.251Z,100880.40
2023-05-08T16:25:33.150Z,100875.40
2023-05-08T16:28:00.920Z,100876.60
2023-05-08T16:30:28.890Z,100880.40
2023-05-08T16:32:56.764Z,100879.40
2023-05-08T16:35:24.584Z,100883.20
2023-05-08T16:37:52.796Z,100878.20
2023-05-08T16:40:20.821Z,100881.40
2023-05-08T16:42:48.562Z,100880.60
2023-05-08T16:45:16.785Z,100884.80
2023-05-08T16:47:44.638Z,100885.20
2023-05-08T16:50:12.596Z,100885.80
2023-05-08T16:52:40.379Z,100885.80
2023-05-08T16:55:09.048Z,100878.40
2023-05-08T16:57:36.924Z,100876.20
2023-05-08T17:00:05.900Z,100873.60
2023-05-08T17:02:33.858Z,100870.40
2023-05-08T17:05:01.914Z,100865.80
2023-05-08T17:07:29.725Z,100868.60
2023-05-08T17:09:58.115Z,100869.60
2023-05-08T17:12:26.097Z,100865.80
2023-05-08T17:14:53.875Z,100858.80
2023-05-08T17:17:21.692Z,100855.60
2023-05-08T17:19:49.456Z,100853.20
2023-05-08T17:22:19.553Z,100851.40
2023-05-08T17:24:47.728Z,100856.80
2023-05-08T17:27:15.572Z,100851.20
2023-05-08T17:29:43.548Z,100847.40
2023-05-08T17:32:11.813Z,100846.80
2023-05-08T17:34:40.075Z,100842.00
2023-05-08T17:37:07.881Z,100832.20
2023-05-08T17:39:35.748Z,100831.60
2023-05-08T17:42:03.605Z,100831.20
2023-05-08T17:44:31.524Z,100836.40
2023-05-08T17:46:59.454Z,100826.80
2023-05-08T17:49:27.259Z,100825.60
2023-05-08T17:51:54.996Z,100828.40
2023-05-08T17:54:22.833Z,100827.20
2023-05-08T17:56:50.617Z,100826.20
2023-05-08T17:59:19.657Z,100838.00
2023-05-08T18:01:47.674Z,100838.40
2023-05-08T18:04:15.695Z,100836.60
2023-05-08T18:06:43.727Z,100831.80
2023-05-08T18:09:11.604Z,100832.00
2023-05-08T18:11:39.420Z,100831.60
2023-05-08T18:14:07.159Z,100829.20
2023-05-08T18:16:35.213Z,100828.60
2023-05-08T18:19:03.043Z,100821.40
2023-05-08T18:21:31.592Z,100824.80
2023-05-08T18:23:59.456Z,100819.40
2023-05-08T18:26:27.268Z,100811.20
2023-05-08T18:28:55.110Z,100806.60
2023-05-08T18:31:23.160Z,100805.80
2023-05-08T18:33:51.124Z,100805.40
2023-05-08T18:36:19.070Z,100805.80
2023-05-08T18:38:46.919Z,100801.00
2023-05-08T18:41:14.838Z,100796.40
2023-05-08T18:43:42.643Z,100793.40
2023-05-08T18:46:12.596Z,100790.20
2023-05-08T18:48:41.228Z,100785.40
2023-05-08T18:51:09.677Z,100787.20
2023-05-08T18:53:39.014Z,100785.80
2023-05-08T18:56:07.199Z,100786.20
2023-05-08T18:58:35.512Z,100780.80
2023-05-08T19:01:03.652Z,100776.40
2023-05-08T19:03:32.462Z,100772.80
2023-05-08T19:06:00.521Z,100769.00
2023-05-08T19:08:28.570Z,100769.00
2023-05-08T19:10:56.533Z,100774.40
2023-05-08T19:13:24.436Z,100771.80
2023-05-08T19:15:54.226Z,100773.60
2023-05-08T19:18:23.230Z,100774.00
2023-05-08T19:20:52.087Z,100770.00
2023-05-08T19:23:21.045Z,100767.20
2023-05-08T19:25:50.151Z,100771.40
2023-05-08T19:28:21.782Z,100770.80
2023-05-08T19:30:50.861Z,100770.40
2023-05-08T19:33:22.975Z,100770.80
2023-05-08T19:35:51.570Z,100764.80
2023-05-08T19:38:20.475Z,100764.20
2023-05-08T19:40:57.120Z,100761.80
2023-05-08T19:43:27.206Z,100764.00
2023-05-08T19:45:55.916Z,100757.00
2023-05-08T19:48:24.592Z,100757.00
2023-05-08T19:50:55.213Z,100759.80
2023-05-08T19:53:23.751Z,100759.20
2023-05-08T19:55:51.850Z,100760.00
2023-05-08T19:58:20.756Z,100759.80
2023-05-08T20:00:51.513Z,100754.20
2023-05-08T20:03:20.726Z,100753.60
2023-05-08T20:05:50.961Z,100756.20
2023-05-08T20:08:19.754Z,100754.40
2023-05-08T20:10:50.297Z,100747.60
2023-05-08T20:13:18.160Z,100745.40
2023-05-08T20:15:46.103Z,100742.20
2023-05-08T20:18:15.140Z,100736.40
2023-05-08T20:20:45.172Z,100740.00
2023-05-08T20:23:13.968Z,100731.40
2023-05-08T20:25:46.894Z,100729.20
2023-05-08T20:28:16.483Z,100725.80
2023-05-08T20:30:45.535Z,100726.60
2023-05-08T20:33:14.736Z,100724.20
2023-05-08T20:35:42.843Z,100721.40
2023-05-08T20:38:10.891Z,100722.00
2023-05-08T20:40:38.723Z,100721.80
2023-05-08T20:43:06.680Z,100721.00
2023-05-08T20:45:34.519Z,100721.20
2023-05-08T20:48:02.284Z,100717.20
2023-05-08T20:50:30.247Z,100714.00
2023-05-08T20:52:58.286Z,100709.00
2023-05-08T20:55:26.186Z,100705.80
2023-05-08T20:57:53.950Z,100694.80
2023-05-08T21:00:22.128Z,100692.40
2023-05-08T21:02:50.046Z,100690.20
2023-05-08T21:05:18.802Z,100683.60
2023-05-08T21:07:48.201Z,100677.00
2023-05-08T21:10:16.694Z,100675.60
2023-05-08T21:12:45.510Z,100677.00
2023-05-08T21:15:13.623Z,100670.80
2023-05-08T21:17:41.809Z,100669.40
2023-05-08T21:20:10.779Z,100665.60
2023-05-08T21:22:39.171Z,100662.20
2023-05-08T21:25:16.685Z,100661.20
2023-05-08T21:27:44.725Z,100655.60
2023-05-08T21:30:15.513Z,100648.40
2023-05-08T21:32:45.774Z,100651.40
2023-05-08T21:35:14.183Z,100647.80
2023-05-08T21:37:42.194Z,100647.20
2023-05-08T21:40:10.381Z,100647.40
2023-05-08T21:42:39.792Z,100639.00
2023-05-08T21:45:08.409Z,100635.80
2023-05-08T21:47:36.191Z,100636.20
2023-05-08T21:50:04.449Z,100637.80
2023-05-08T21:52:32.327Z,100630.80
2023-05-08T21:55:00.072Z,100623.40
2023-05-08T21:57:27.873Z,100622.60
2023-05-08T21:59:55.640Z,100617.80
2023-05-08T22:02:23.596Z,100616.00
2023-05-08T22:04:51.391Z,100614.80
2023-05-08T22:07:21.047Z,100611.60
2023-05-08T22:09:48.913Z,100606.80
2023-05-08T22:12:16.908Z,100609.00
2023-05-08T22:14:44.799Z,100599.40
2023-05-08T22:17:12.659Z,100589.00
2023-05-08T22:19:40.482Z,100590.20
2023-05-08T22:22:08.532Z,100584.00
2023-05-08T22:24:36.360Z,100576.80
2023-05-08T22:27:04.344Z,100570.80
2023-05-08T22:29:32.162Z,100567.80
2023-05-08T22:32:00.167Z,100559.00
2023-05-08T22:34:28.033Z,100559.40
2023-05-08T22:36:55.864Z,100557.00
2023-05-08T22:39:23.692Z,100551.80
2023-05-08T22:41:51.794Z,100553.20
2023-05-08T22:44:19.689Z,100545.20
2023-05-08T22:46:47.759Z,100547.40
2023-05-08T22:49:15.748Z,100542.80
2023-05-08T22:51:43.770Z,100539.60
2023-05-08T22:54:11.724Z,100537.20
2023-05-08T22:56:39.671Z,100532.60
2023-05-08T22:59:07.479Z,100534.80
2023-05-08T23:01:35.254Z,100524.40
2023-05-08T23:04:03.077Z,100521.80
2023-05-08T23:06:30.940Z,100519.40
2023-05-08T23:08:59.145Z,100518.00
2023-05-08T23:11:27.164Z,100514.20
2023-05-08T23:13:54.998Z,100512.60
2023-05-08T23:16:22.894Z,100508.20
2023-05-08T23:18:50.943Z,100508.40
2023-05-08T23:21:18.794Z,100500.40
2023-05-08T23:23:47.952Z,100495.40
2023-05-08T23:26:15.907Z,100495.20
2023-05-08T23:28:43.688Z,100492.00
2023-05-08T23:31:11.539Z,100491.60
2023-05-08T23:33:39.687Z,100492.20
2023-05-08T23:36:08.172Z,100488.40
2023-05-08T23:38:35.950Z,100484.00
2023-05-08T23:41:03.769Z,100486.80
2023-05-08T23:43:32.073Z,100481.40
2023-05-08T23:45:59.945Z,100478.40
2023-05-08T23:48:28.249Z,100476.60
2023-05-08T23:50:56.008Z,100478.40
2023-05-08T23:53:23.995Z,100474.40
2023-05-08T23:55:52.464Z,100470.20
2023-05-08T23:58:21.233Z,100466.40
